sensor_id;sensor_type;location;lat;lon;timestamp;temperature;humidity
41985;DHT22;28319;48.116;10.818;2024-03-07T00:04:04;4.10;85.10
41985;DHT22;28319;48.116;10.818;2024-03-07T00:09:06;3.60;84.20
41985;DHT22;28319;48.116;10.818;2024-03-07T00:14:10;3.60;84.30
41985;DHT22;28319;48.116;10.818;2024-03-07T00:19:14;3.70;84.10
41985;DHT22;28319;48.116;10.818;2024-03-07T00:24:16;3.60;84.70
41985;DHT22;28319;48.116;10.818;2024-03-07T00:29:18;3.50;85.00
41985;DHT22;28319;48.116;10.818;2024-03-07T00:34:22;3.70;84.90
41985;DHT22;28319;48.116;10.818;2024-03-07T00:39:24;3.60;84.40
41985;DHT22;28319;48.116;10.818;2024-03-07T00:44:26;3.80;84.00
41985;DHT22;28319;48.116;10.818;2024-03-07T00:49:30;3.80;83.40
41985;DHT22;28319;48.116;10.818;2024-03-07T00:54:32;3.80;83.10
41985;DHT22;28319;48.116;10.818;2024-03-07T00:59:34;3.70;83.60
41985;DHT22;28319;48.116;10.818;2024-03-07T01:04:38;3.70;83.60
41985;DHT22;28319;48.116;10.818;2024-03-07T01:09:40;3.90;83.00
41985;DHT22;28319;48.116;10.818;2024-03-07T01:14:42;4.00;82.30
41985;DHT22;28319;48.116;10.818;2024-03-07T01:19:46;3.80;82.90
41985;DHT22;28319;48.116;10.818;2024-03-07T01:24:48;3.80;83.30
41985;DHT22;28319;48.116;10.818;2024-03-07T01:29:51;3.70;83.90
41985;DHT22;28319;48.116;10.818;2024-03-07T01:34:55;3.70;83.80
41985;DHT22;28319;48.116;10.818;2024-03-07T01:39:57;3.90;82.40
41985;DHT22;28319;48.116;10.818;2024-03-07T01:44:59;3.90;83.60
41985;DHT22;28319;48.116;10.818;2024-03-07T01:50:04;3.80;82.90
41985;DHT22;28319;48.116;10.818;2024-03-07T01:55:07;3.80;83.30
41985;DHT22;28319;48.116;10.818;2024-03-07T02:00:11;3.70;83.90
41985;DHT22;28319;48.116;10.818;2024-03-07T02:05:15;3.70;84.00
41985;DHT22;28319;48.116;10.818;2024-03-07T02:10:18;3.80;83.90
41985;DHT22;28319;48.116;10.818;2024-03-07T02:15:20;3.80;83.80
41985;DHT22;28319;48.116;10.818;2024-03-07T02:20:23;3.80;84.00
41985;DHT22;28319;48.116;10.818;2024-03-07T02:25:26;3.90;83.00
41985;DHT22;28319;48.116;10.818;2024-03-07T02:30:28;3.90;83.30
41985;DHT22;28319;48.116;10.818;2024-03-07T02:35:33;3.90;83.30
41985;DHT22;28319;48.116;10.818;2024-03-07T02:40:37;3.90;83.00
41985;DHT22;28319;48.116;10.818;2024-03-07T02:45:39;3.80;83.10
41985;DHT22;28319;48.116;10.818;2024-03-07T02:50:41;3.90;83.80
41985;DHT22;28319;48.116;10.818;2024-03-07T02:55:45;3.80;83.40
41985;DHT22;28319;48.116;10.818;2024-03-07T03:00:47;3.80;84.10
41985;DHT22;28319;48.116;10.818;2024-03-07T03:05:49;3.80;83.60
41985;DHT22;28319;48.116;10.818;2024-03-07T03:10:52;3.90;83.50
41985;DHT22;28319;48.116;10.818;2024-03-07T03:15:57;3.90;84.10
41985;DHT22;28319;48.116;10.818;2024-03-07T03:20:59;3.90;83.50
41985;DHT22;28319;48.116;10.818;2024-03-07T03:26:02;3.90;83.60
41985;DHT22;28319;48.116;10.818;2024-03-07T03:31:05;4.10;82.40
41985;DHT22;28319;48.116;10.818;2024-03-07T03:36:07;4.10;82.30
41985;DHT22;28319;48.116;10.818;2024-03-07T03:41:15;4.10;81.90
41985;DHT22;28319;48.116;10.818;2024-03-07T03:46:17;4.00;82.70
41985;DHT22;28319;48.116;10.818;2024-03-07T03:51:19;4.00;82.20
41985;DHT22;28319;48.116;10.818;2024-03-07T03:56:23;4.10;82.30
41985;DHT22;28319;48.116;10.818;2024-03-07T04:01:27;4.00;82.50
41985;DHT22;28319;48.116;10.818;2024-03-07T04:06:29;4.00;83.30
41985;DHT22;28319;48.116;10.818;2024-03-07T04:11:32;3.90;83.40
41985;DHT22;28319;48.116;10.818;2024-03-07T04:16:34;4.00;82.90
41985;DHT22;28319;48.116;10.818;2024-03-07T04:21:39;3.90;83.60
41985;DHT22;28319;48.116;10.818;2024-03-07T04:26:43;4.20;81.70
41985;DHT22;28319;48.116;10.818;2024-03-07T04:31:45;4.20;81.70
41985;DHT22;28319;48.116;10.818;2024-03-07T04:36:47;4.20;81.70
41985;DHT22;28319;48.116;10.818;2024-03-07T04:41:54;4.20;81.60
41985;DHT22;28319;48.116;10.818;2024-03-07T04:46:57;4.30;81.20
41985;DHT22;28319;48.116;10.818;2024-03-07T04:52:02;4.30;82.00
41985;DHT22;28319;48.116;10.818;2024-03-07T04:57:06;4.30;81.80
41985;DHT22;28319;48.116;10.818;2024-03-07T05:02:08;4.50;80.90
41985;DHT22;28319;48.116;10.818;2024-03-07T05:07:10;4.10;83.00
41985;DHT22;28319;48.116;10.818;2024-03-07T05:12:14;3.80;86.10
41985;DHT22;28319;48.116;10.818;2024-03-07T05:17:16;3.90;85.20
41985;DHT22;28319;48.116;10.818;2024-03-07T05:22:20;3.80;85.70
41985;DHT22;28319;48.116;10.818;2024-03-07T05:27:29;3.60;86.60
41985;DHT22;28319;48.116;10.818;2024-03-07T05:32:34;3.50;87.10
41985;DHT22;28319;48.116;10.818;2024-03-07T05:37:36;3.50;86.80
41985;DHT22;28319;48.116;10.818;2024-03-07T05:42:43;3.50;87.40
41985;DHT22;28319;48.116;10.818;2024-03-07T05:47:46;3.50;87.30
41985;DHT22;28319;48.116;10.818;2024-03-07T05:52:49;3.40;87.70
41985;DHT22;28319;48.116;10.818;2024-03-07T05:57:53;3.40;88.20
41985;DHT22;28319;48.116;10.818;2024-03-07T06:02:55;3.60;88.00
41985;DHT22;28319;48.116;10.818;2024-03-07T06:07:57;3.40;87.10
41985;DHT22;28319;48.116;10.818;2024-03-07T06:13:01;3.40;87.80
41985;DHT22;28319;48.116;10.818;2024-03-07T06:18:03;3.30;88.10
41985;DHT22;28319;48.116;10.818;2024-03-07T06:23:05;3.40;87.80
41985;DHT22;28319;48.116;10.818;2024-03-07T06:28:09;3.30;86.70
41985;DHT22;28319;48.116;10.818;2024-03-07T06:33:12;3.40;87.40
41985;DHT22;28319;48.116;10.818;2024-03-07T06:38:14;3.30;86.40
41985;DHT22;28319;48.116;10.818;2024-03-07T06:43:17;3.40;86.40
41985;DHT22;28319;48.116;10.818;2024-03-07T06:48:19;3.40;86.10
41985;DHT22;28319;48.116;10.818;2024-03-07T06:53:21;3.30;86.10
41985;DHT22;28319;48.116;10.818;2024-03-07T06:58:28;3.30;85.70
41985;DHT22;28319;48.116;10.818;2024-03-07T07:03:30;3.10;85.80
41985;DHT22;28319;48.116;10.818;2024-03-07T07:08:32;3.00;85.50
41985;DHT22;28319;48.116;10.818;2024-03-07T07:13:36;2.90;85.30
41985;DHT22;28319;48.116;10.818;2024-03-07T07:18:38;2.80;86.00
41985;DHT22;28319;48.116;10.818;2024-03-07T07:23:40;2.80;85.40
41985;DHT22;28319;48.116;10.818;2024-03-07T07:28:43;2.80;85.40
41985;DHT22;28319;48.116;10.818;2024-03-07T07:33:45;2.70;85.80
41985;DHT22;28319;48.116;10.818;2024-03-07T07:38:47;2.70;84.70
41985;DHT22;28319;48.116;10.818;2024-03-07T07:43:51;2.90;85.10
41985;DHT22;28319;48.116;10.818;2024-03-07T07:48:52;2.80;84.70
41985;DHT22;28319;48.116;10.818;2024-03-07T07:53:54;3.00;84.90
41985;DHT22;28319;48.116;10.818;2024-03-07T07:58:58;2.90;83.30
41985;DHT22;28319;48.116;10.818;2024-03-07T08:04:00;2.90;83.90
41985;DHT22;28319;48.116;10.818;2024-03-07T08:09:02;3.00;83.30
41985;DHT22;28319;48.116;10.818;2024-03-07T08:14:09;2.80;83.40
41985;DHT22;28319;48.116;10.818;2024-03-07T08:19:11;2.90;83.50
41985;DHT22;28319;48.116;10.818;2024-03-07T08:24:14;2.90;82.90
41985;DHT22;28319;48.116;10.818;2024-03-07T08:29:18;3.10;81.90
41985;DHT22;28319;48.116;10.818;2024-03-07T08:34:19;3.20;82.50
41985;DHT22;28319;48.116;10.818;2024-03-07T08:39:22;3.30;82.00
41985;DHT22;28319;48.116;10.818;2024-03-07T08:44:26;4.10;81.50
41985;DHT22;28319;48.116;10.818;2024-03-07T08:49:28;3.50;80.60
41985;DHT22;28319;48.116;10.818;2024-03-07T08:54:30;3.50;81.30
41985;DHT22;28319;48.116;10.818;2024-03-07T08:59:33;3.40;80.50
41985;DHT22;28319;48.116;10.818;2024-03-07T09:04:35;3.60;81.50
41985;DHT22;28319;48.116;10.818;2024-03-07T09:09:37;3.40;80.80
41985;DHT22;28319;48.116;10.818;2024-03-07T09:14:40;3.50;81.10
41985;DHT22;28319;48.116;10.818;2024-03-07T09:19:42;3.50;80.30
41985;DHT22;28319;48.116;10.818;2024-03-07T09:24:44;3.70;77.70
41985;DHT22;28319;48.116;10.818;2024-03-07T09:29:47;3.60;79.30
41985;DHT22;28319;48.116;10.818;2024-03-07T09:34:49;3.70;79.10
41985;DHT22;28319;48.116;10.818;2024-03-07T09:39:51;3.70;79.40
41985;DHT22;28319;48.116;10.818;2024-03-07T09:44:56;3.80;77.20
41985;DHT22;28319;48.116;10.818;2024-03-07T09:49:59;3.70;77.20
41985;DHT22;28319;48.116;10.818;2024-03-07T09:55:01;3.80;78.50
41985;DHT22;28319;48.116;10.818;2024-03-07T10:00:07;4.30;78.40
41985;DHT22;28319;48.116;10.818;2024-03-07T10:05:26;4.00;76.70
41985;DHT22;28319;48.116;10.818;2024-03-07T10:10:28;4.00;78.00
41985;DHT22;28319;48.116;10.818;2024-03-07T10:15:32;4.00;77.40
41985;DHT22;28319;48.116;10.818;2024-03-07T10:20:35;4.00;77.80
41985;DHT22;28319;48.116;10.818;2024-03-07T10:25:37;4.00;79.20
41985;DHT22;28319;48.116;10.818;2024-03-07T10:30:41;4.00;79.30
41985;DHT22;28319;48.116;10.818;2024-03-07T10:35:47;4.20;79.80
41985;DHT22;28319;48.116;10.818;2024-03-07T10:40:53;4.20;79.80
41985;DHT22;28319;48.116;10.818;2024-03-07T10:45:57;4.20;79.30
41985;DHT22;28319;48.116;10.818;2024-03-07T10:51:06;4.30;80.30
41985;DHT22;28319;48.116;10.818;2024-03-07T10:56:22;4.40;81.20
41985;DHT22;28319;48.116;10.818;2024-03-07T11:01:30;4.40;79.10
41985;DHT22;28319;48.116;10.818;2024-03-07T11:06:34;4.30;79.50
41985;DHT22;28319;48.116;10.818;2024-03-07T11:11:38;4.10;79.20
41985;DHT22;28319;48.116;10.818;2024-03-07T11:16:44;4.30;79.70
41985;DHT22;28319;48.116;10.818;2024-03-07T11:21:47;4.20;79.60
41985;DHT22;28319;48.116;10.818;2024-03-07T11:26:51;4.20;79.80
41985;DHT22;28319;48.116;10.818;2024-03-07T11:31:55;4.20;79.90
41985;DHT22;28319;48.116;10.818;2024-03-07T11:36:57;4.30;80.10
41985;DHT22;28319;48.116;10.818;2024-03-07T11:42:00;4.40;79.60
41985;DHT22;28319;48.116;10.818;2024-03-07T11:47:10;4.30;79.40
41985;DHT22;28319;48.116;10.818;2024-03-07T11:52:13;4.40;79.10
41985;DHT22;28319;48.116;10.818;2024-03-07T11:57:18;4.60;79.10
41985;DHT22;28319;48.116;10.818;2024-03-07T12:02:30;4.70;78.40
41985;DHT22;28319;48.116;10.818;2024-03-07T12:07:32;4.90;78.30
41985;DHT22;28319;48.116;10.818;2024-03-07T12:12:34;4.90;77.30
41985;DHT22;28319;48.116;10.818;2024-03-07T12:17:41;5.10;76.60
41985;DHT22;28319;48.116;10.818;2024-03-07T12:22:43;5.20;75.30
41985;DHT22;28319;48.116;10.818;2024-03-07T12:27:46;5.20;75.40
41985;DHT22;28319;48.116;10.818;2024-03-07T12:32:52;5.30;74.20
41985;DHT22;28319;48.116;10.818;2024-03-07T12:37:55;5.40;73.80
41985;DHT22;28319;48.116;10.818;2024-03-07T12:42:56;5.50;72.20
41985;DHT22;28319;48.116;10.818;2024-03-07T12:48:00;5.60;72.20
41985;DHT22;28319;48.116;10.818;2024-03-07T12:53:05;5.50;72.70
41985;DHT22;28319;48.116;10.818;2024-03-07T12:58:12;5.70;73.60
41985;DHT22;28319;48.116;10.818;2024-03-07T13:03:17;5.70;72.20
41985;DHT22;28319;48.116;10.818;2024-03-07T13:08:19;5.80;71.00
41985;DHT22;28319;48.116;10.818;2024-03-07T13:13:26;5.90;72.00
41985;DHT22;28319;48.116;10.818;2024-03-07T13:18:29;6.10;70.60
41985;DHT22;28319;48.116;10.818;2024-03-07T13:23:34;6.20;69.60
41985;DHT22;28319;48.116;10.818;2024-03-07T13:28:40;6.20;69.00
41985;DHT22;28319;48.116;10.818;2024-03-07T13:33:44;6.10;70.80
41985;DHT22;28319;48.116;10.818;2024-03-07T13:38:45;6.20;70.20
41985;DHT22;28319;48.116;10.818;2024-03-07T13:43:48;6.10;70.50
41985;DHT22;28319;48.116;10.818;2024-03-07T13:48:54;6.20;71.30
41985;DHT22;28319;48.116;10.818;2024-03-07T13:54:05;6.20;70.90
41985;DHT22;28319;48.116;10.818;2024-03-07T14:11:06;6.20;70.20
41985;DHT22;28319;48.116;10.818;2024-03-07T14:16:57;6.40;68.80
41985;DHT22;28319;48.116;10.818;2024-03-07T14:22:20;6.40;66.60
41985;DHT22;28319;48.116;10.818;2024-03-07T14:27:32;6.60;64.10
41985;DHT22;28319;48.116;10.818;2024-03-07T14:32:37;6.50;64.40
41985;DHT22;28319;48.116;10.818;2024-03-07T14:37:46;6.50;67.10
41985;DHT22;28319;48.116;10.818;2024-03-07T14:42:55;6.30;67.70
41985;DHT22;28319;48.116;10.818;2024-03-07T14:47:58;6.50;68.60
41985;DHT22;28319;48.116;10.818;2024-03-07T14:53:01;6.30;67.70
41985;DHT22;28319;48.116;10.818;2024-03-07T14:58:05;6.40;68.20
41985;DHT22;28319;48.116;10.818;2024-03-07T15:03:13;6.40;67.40
41985;DHT22;28319;48.116;10.818;2024-03-07T15:08:17;6.50;67.00
41985;DHT22;28319;48.116;10.818;2024-03-07T15:13:24;6.50;67.40
41985;DHT22;28319;48.116;10.818;2024-03-07T15:18:26;6.50;66.60
41985;DHT22;28319;48.116;10.818;2024-03-07T15:23:28;6.40;63.30
41985;DHT22;28319;48.116;10.818;2024-03-07T15:28:32;6.10;64.30
41985;DHT22;28319;48.116;10.818;2024-03-07T15:33:35;6.00;64.70
41985;DHT22;28319;48.116;10.818;2024-03-07T15:38:37;6.00;66.50
41985;DHT22;28319;48.116;10.818;2024-03-07T15:43:41;6.00;66.20
41985;DHT22;28319;48.116;10.818;2024-03-07T15:48:44;6.10;67.90
41985;DHT22;28319;48.116;10.818;2024-03-07T15:53:48;6.00;67.00
41985;DHT22;28319;48.116;10.818;2024-03-07T15:58:52;6.00;67.70
41985;DHT22;28319;48.116;10.818;2024-03-07T16:03:53;6.10;68.30
41985;DHT22;28319;48.116;10.818;2024-03-07T16:08:56;6.00;67.40
41985;DHT22;28319;48.116;10.818;2024-03-07T16:13:59;6.10;67.80
41985;DHT22;28319;48.116;10.818;2024-03-07T16:19:01;6.00;67.30
41985;DHT22;28319;48.116;10.818;2024-03-07T16:24:06;5.90;67.40
41985;DHT22;28319;48.116;10.818;2024-03-07T16:29:10;5.80;68.70
41985;DHT22;28319;48.116;10.818;2024-03-07T16:34:12;5.70;70.40
41985;DHT22;28319;48.116;10.818;2024-03-07T16:39:14;5.70;70.90
41985;DHT22;28319;48.116;10.818;2024-03-07T16:44:17;5.60;71.50
41985;DHT22;28319;48.116;10.818;2024-03-07T16:49:22;5.50;71.40
41985;DHT22;28319;48.116;10.818;2024-03-07T16:54:26;5.60;71.70
41985;DHT22;28319;48.116;10.818;2024-03-07T16:59:30;5.60;71.60
41985;DHT22;28319;48.116;10.818;2024-03-07T17:04:32;5.50;70.50
41985;DHT22;28319;48.116;10.818;2024-03-07T17:09:35;5.50;72.00
41985;DHT22;28319;48.116;10.818;2024-03-07T17:14:38;5.30;71.20
41985;DHT22;28319;48.116;10.818;2024-03-07T17:19:44;5.40;72.30
41985;DHT22;28319;48.116;10.818;2024-03-07T17:24:48;5.40;71.70
41985;DHT22;28319;48.116;10.818;2024-03-07T17:29:51;5.30;71.70
41985;DHT22;28319;48.116;10.818;2024-03-07T17:34:53;5.30;71.70
41985;DHT22;28319;48.116;10.818;2024-03-07T17:39:56;5.30;72.40
41985;DHT22;28319;48.116;10.818;2024-03-07T17:44:59;5.30;72.00
41985;DHT22;28319;48.116;10.818;2024-03-07T17:50:01;5.30;72.70
41985;DHT22;28319;48.116;10.818;2024-03-07T17:55:05;5.20;72.00
41985;DHT22;28319;48.116;10.818;2024-03-07T18:00:11;5.20;72.20
41985;DHT22;28319;48.116;10.818;2024-03-07T18:05:16;5.20;72.40
41985;DHT22;28319;48.116;10.818;2024-03-07T18:10:19;5.20;71.80
41985;DHT22;28319;48.116;10.818;2024-03-07T18:15:24;5.20;72.30
41985;DHT22;28319;48.116;10.818;2024-03-07T18:20:28;5.20;71.10
41985;DHT22;28319;48.116;10.818;2024-03-07T18:25:30;5.10;71.70
41985;DHT22;28319;48.116;10.818;2024-03-07T18:30:37;5.00;69.60
41985;DHT22;28319;48.116;10.818;2024-03-07T18:35:39;4.90;68.80
41985;DHT22;28319;48.116;10.818;2024-03-07T18:40:43;4.90;69.60
41985;DHT22;28319;48.116;10.818;2024-03-07T18:45:47;4.90;69.40
41985;DHT22;28319;48.116;10.818;2024-03-07T18:50:51;4.90;69.70
41985;DHT22;28319;48.116;10.818;2024-03-07T18:55:53;4.90;70.00
41985;DHT22;28319;48.116;10.818;2024-03-07T19:00:58;4.80;69.60
41985;DHT22;28319;48.116;10.818;2024-03-07T19:06:04;4.70;70.40
41985;DHT22;28319;48.116;10.818;2024-03-07T19:11:09;4.60;69.80
41985;DHT22;28319;48.116;10.818;2024-03-07T19:16:14;4.40;70.20
41985;DHT22;28319;48.116;10.818;2024-03-07T19:21:16;4.30;70.40
41985;DHT22;28319;48.116;10.818;2024-03-07T19:26:21;4.30;70.60
41985;DHT22;28319;48.116;10.818;2024-03-07T19:31:24;4.20;70.40
41985;DHT22;28319;48.116;10.818;2024-03-07T19:36:26;4.10;70.70
41985;DHT22;28319;48.116;10.818;2024-03-07T19:41:28;4.00;70.10
41985;DHT22;28319;48.116;10.818;2024-03-07T19:46:33;3.90;70.80
41985;DHT22;28319;48.116;10.818;2024-03-07T19:51:35;3.80;71.30
41985;DHT22;28319;48.116;10.818;2024-03-07T19:56:37;3.80;70.60
41985;DHT22;28319;48.116;10.818;2024-03-07T20:01:42;3.70;71.50
41985;DHT22;28319;48.116;10.818;2024-03-07T20:06:44;3.60;71.10
41985;DHT22;28319;48.116;10.818;2024-03-07T20:11:47;3.60;70.80
41985;DHT22;28319;48.116;10.818;2024-03-07T20:16:51;3.50;70.90
41985;DHT22;28319;48.116;10.818;2024-03-07T20:21:55;3.50;70.20
41985;DHT22;28319;48.116;10.818;2024-03-07T20:26:58;3.40;70.40
41985;DHT22;28319;48.116;10.818;2024-03-07T20:32:09;3.50;71.30
41985;DHT22;28319;48.116;10.818;2024-03-07T20:37:11;3.50;70.50
41985;DHT22;28319;48.116;10.818;2024-03-07T20:42:13;3.40;71.20
41985;DHT22;28319;48.116;10.818;2024-03-07T20:47:17;3.30;71.00
41985;DHT22;28319;48.116;10.818;2024-03-07T20:52:20;3.20;71.00
41985;DHT22;28319;48.116;10.818;2024-03-07T20:57:22;3.20;71.90
41985;DHT22;28319;48.116;10.818;2024-03-07T21:02:25;2.90;72.10
41985;DHT22;28319;48.116;10.818;2024-03-07T21:07:28;2.90;72.60
41985;DHT22;28319;48.116;10.818;2024-03-07T21:12:30;2.80;72.50
41985;DHT22;28319;48.116;10.818;2024-03-07T21:17:34;2.80;72.90
41985;DHT22;28319;48.116;10.818;2024-03-07T21:22:36;2.80;73.10
41985;DHT22;28319;48.116;10.818;2024-03-07T21:27:38;3.10;73.40
41985;DHT22;28319;48.116;10.818;2024-03-07T21:32:43;2.80;73.70
41985;DHT22;28319;48.116;10.818;2024-03-07T21:37:45;2.70;72.30
41985;DHT22;28319;48.116;10.818;2024-03-07T21:42:49;2.80;72.50
41985;DHT22;28319;48.116;10.818;2024-03-07T21:47:53;2.70;72.90
41985;DHT22;28319;48.116;10.818;2024-03-07T21:52:56;2.70;72.00
41985;DHT22;28319;48.116;10.818;2024-03-07T21:57:59;2.70;72.10
41985;DHT22;28319;48.116;10.818;2024-03-07T22:03:02;2.60;72.20
41985;DHT22;28319;48.116;10.818;2024-03-07T22:08:05;2.60;73.40
41985;DHT22;28319;48.116;10.818;2024-03-07T22:13:07;2.60;72.40
41985;DHT22;28319;48.116;10.818;2024-03-07T22:18:11;2.60;72.60
41985;DHT22;28319;48.116;10.818;2024-03-07T22:23:13;2.40;73.40
41985;DHT22;28319;48.116;10.818;2024-03-07T22:28:15;2.40;72.80
41985;DHT22;28319;48.116;10.818;2024-03-07T22:33:19;2.40;73.90
41985;DHT22;28319;48.116;10.818;2024-03-07T22:38:21;2.60;73.50
41985;DHT22;28319;48.116;10.818;2024-03-07T22:43:23;2.50;73.20
41985;DHT22;28319;48.116;10.818;2024-03-07T22:48:26;2.50;72.90
41985;DHT22;28319;48.116;10.818;2024-03-07T22:53:29;2.60;72.50
41985;DHT22;28319;48.116;10.818;2024-03-07T22:58:31;2.80;72.40
41985;DHT22;28319;48.116;10.818;2024-03-07T23:03:34;2.20;74.10
41985;DHT22;28319;48.116;10.818;2024-03-07T23:08:39;2.20;73.10
41985;DHT22;28319;48.116;10.818;2024-03-07T23:13:41;2.10;73.60
41985;DHT22;28319;48.116;10.818;2024-03-07T23:18:44;2.40;74.30
41985;DHT22;28319;48.116;10.818;2024-03-07T23:23:47;2.10;74.30
41985;DHT22;28319;48.116;10.818;2024-03-07T23:28:49;2.20;75.00
41985;DHT22;28319;48.116;10.818;2024-03-07T23:33:52;1.90;75.20
41985;DHT22;28319;48.116;10.818;2024-03-07T23:38:54;1.90;75.20
41985;DHT22;28319;48.116;10.818;2024-03-07T23:43:56;1.90;75.70
41985;DHT22;28319;48.116;10.818;2024-03-07T23:48:59;1.90;75.30
41985;DHT22;28319;48.116;10.818;2024-03-07T23:54:01;1.70;76.30
41985;DHT22;28319;48.116;10.818;2024-03-07T23:59:05;1.70;76.30
